createdAt,value
2022-10-07T00:01:35.056Z,101073.13
2022-10-07T00:04:22.956Z,101079.66
2022-10-07T00:07:10.903Z,101072.53
2022-10-07T00:09:58.762Z,101080.34
2022-10-07T00:12:46.648Z,101072.44
2022-10-07T00:15:34.553Z,101078.16
2022-10-07T00:18:23.734Z,101076.56
2022-10-07T00:21:13.256Z,101083.44
2022-10-07T00:24:01.768Z,101075.53
2022-10-07T00:26:49.615Z,101064.88
2022-10-07T00:29:37.475Z,101065.53
2022-10-07T00:32:25.333Z,101061.31
2022-10-07T00:35:16.436Z,101059.97
2022-10-07T00:38:04.352Z,101058.94
2022-10-07T00:40:52.260Z,101044.75
2022-10-07T00:43:40.212Z,101047.94
2022-10-07T00:46:32.345Z,101051.97
2022-10-07T00:49:20.372Z,101036.28
2022-10-07T00:52:10.910Z,101034.56
2022-10-07T00:55:02.227Z,101035.91
2022-10-07T00:57:52.426Z,101030.72
2022-10-07T01:00:41.232Z,100981.44
2022-10-07T01:03:29.690Z,101019.94
2022-10-07T01:06:17.986Z,101011.19
2022-10-07T01:09:08.700Z,101016.59
2022-10-07T01:12:01.371Z,101021.06
2022-10-07T01:15:01.055Z,101024.44
2022-10-07T01:17:54.678Z,101017.59
2022-10-07T01:20:47.666Z,101014.28
2022-10-07T01:24:00.939Z,101008.34
2022-10-07T01:26:57.312Z,101001.94
2022-10-07T01:29:55.824Z,101008.22
2022-10-07T01:32:48.244Z,100999.09
2022-10-07T01:35:38.282Z,100998.88
2022-10-07T01:38:33.674Z,100982.19
2022-10-07T01:41:23.168Z,100988.47
2022-10-07T01:44:13.768Z,100994.06
2022-10-07T01:47:01.796Z,100989.63
2022-10-07T01:49:49.780Z,100969.09
2022-10-07T01:52:52.699Z,100980.44
2022-10-07T01:55:52.751Z,100975.28
2022-10-07T01:58:56.780Z,100970.97
2022-10-07T02:01:53.993Z,100976.31
2022-10-07T02:04:59.088Z,100972.97
2022-10-07T02:08:02.362Z,100966.34
2022-10-07T02:11:02.041Z,100970.09
2022-10-07T02:14:01.311Z,100973.50
2022-10-07T02:17:02.747Z,100976.94
2022-10-07T02:19:56.401Z,100963.50
2022-10-07T02:22:47.195Z,100970.13
2022-10-07T02:25:39.653Z,100957.56
2022-10-07T02:28:29.097Z,100940.06
2022-10-07T02:31:21.381Z,100933.84
2022-10-07T02:34:18.914Z,100931.91
2022-10-07T02:37:15.503Z,100947.22
2022-10-07T02:40:09.626Z,100920.56
2022-10-07T02:43:05.245Z,100930.97
2022-10-07T02:46:02.065Z,100938.22
2022-10-07T02:48:58.755Z,100932.72
2022-10-07T02:51:52.703Z,100931.88
2022-10-07T02:54:45.008Z,100931.75
2022-10-07T02:57:37.192Z,100926.34
2022-10-07T03:00:25.531Z,100919.41
2022-10-07T03:03:14.706Z,100886.22
2022-10-07T03:06:19.892Z,100920.66
2022-10-07T03:09:09.994Z,100920.06
2022-10-07T03:11:58.268Z,100920.97
2022-10-07T03:14:49.708Z,100918.94
2022-10-07T03:17:39.603Z,100919.94
2022-10-07T03:20:30.083Z,100919.94
2022-10-07T03:23:18.036Z,100909.00
2022-10-07T03:26:07.410Z,100907.50
2022-10-07T03:28:55.340Z,100892.56
2022-10-07T03:31:44.063Z,100900.38
2022-10-07T03:34:32.510Z,100893.38
2022-10-07T03:37:21.144Z,100895.50
2022-10-07T03:40:10.049Z,100891.31
2022-10-07T03:43:00.105Z,100890.16
2022-10-07T03:45:51.317Z,100887.22
2022-10-07T03:48:39.663Z,100884.28
2022-10-07T03:51:28.353Z,100881.69
2022-10-07T03:54:16.507Z,100887.94
2022-10-07T03:57:24.767Z,100879.91
2022-10-07T04:00:14.820Z,100874.53
2022-10-07T04:03:02.860Z,100889.28
2022-10-07T04:05:59.653Z,100877.66
2022-10-07T04:08:52.741Z,100871.25
2022-10-07T04:11:41.685Z,100876.66
2022-10-07T04:14:30.385Z,100873.00
2022-10-07T04:17:19.857Z,100875.44
2022-10-07T04:20:09.234Z,100874.03
2022-10-07T04:22:57.289Z,100874.84
2022-10-07T04:25:46.644Z,100843.69
2022-10-07T04:28:39.259Z,100874.53
2022-10-07T04:31:33.444Z,100870.06
2022-10-07T04:34:26.703Z,100875.88
2022-10-07T04:37:15.305Z,100860.31
2022-10-07T04:40:03.318Z,100856.19
2022-10-07T04:43:11.806Z,100853.84
2022-10-07T04:46:05.435Z,100850.63
2022-10-07T04:48:55.474Z,100853.03
2022-10-07T04:51:48.294Z,100846.78
2022-10-07T04:54:39.328Z,100841.63
2022-10-07T04:57:27.407Z,100843.44
2022-10-07T05:00:15.665Z,100847.78
2022-10-07T05:03:04.397Z,100841.44
2022-10-07T05:05:54.099Z,100836.31
2022-10-07T05:08:45.247Z,100835.72
2022-10-07T05:11:34.662Z,100838.78
2022-10-07T05:14:29.441Z,100832.69
2022-10-07T05:17:20.153Z,100825.75
2022-10-07T05:20:09.079Z,100830.81
2022-10-07T05:22:58.077Z,100831.50
2022-10-07T05:25:48.284Z,100832.28
2022-10-07T05:28:36.533Z,100835.91
2022-10-07T05:31:25.796Z,100825.09
2022-10-07T05:34:16.349Z,100768.66
2022-10-07T05:37:04.320Z,100813.19
2022-10-07T05:39:52.964Z,100816.06
2022-10-07T05:42:43.369Z,100817.91
2022-10-07T05:45:31.950Z,100811.53
2022-10-07T05:48:21.647Z,100816.34
2022-10-07T05:51:09.744Z,100810.78
2022-10-07T05:53:58.201Z,100819.78
2022-10-07T05:56:53.873Z,100773.66
2022-10-07T05:59:44.116Z,100812.72
2022-10-07T06:02:32.546Z,100794.22
2022-10-07T06:05:00.929Z,100814.41
2022-10-07T06:07:29.746Z,100812.03
2022-10-07T06:10:16.989Z,100816.63
2022-10-07T06:13:02.254Z,100800.75
2022-10-07T06:15:32.423Z,100806.81
2022-10-07T06:18:00.332Z,100808.53
2022-10-07T06:20:28.983Z,100812.19
2022-10-07T06:22:58.879Z,100815.38
2022-10-07T06:25:27.864Z,100815.63
2022-10-07T06:27:58.091Z,100804.41
2022-10-07T06:30:27.571Z,100821.09
2022-10-07T06:32:57.352Z,100828.16
2022-10-07T06:35:25.403Z,100815.50
2022-10-07T06:37:54.856Z,100809.88
2022-10-07T06:40:22.485Z,100811.97
2022-10-07T06:42:50.441Z,100820.06
2022-10-07T06:45:44.279Z,100817.19
2022-10-07T06:48:14.883Z,100823.13
2022-10-07T06:50:50.789Z,100795.34
2022-10-07T06:53:18.643Z,100824.50
2022-10-07T06:55:47.470Z,100824.94
2022-10-07T06:58:15.746Z,100828.13
2022-10-07T07:00:44.322Z,100833.63
2022-10-07T07:03:12.188Z,100827.22
2022-10-07T07:05:44.617Z,100790.53
2022-10-07T07:08:17.194Z,100823.56
2022-10-07T07:10:46.251Z,100832.19
2022-10-07T07:13:15.420Z,100827.72
2022-10-07T07:15:43.528Z,100826.22
2022-10-07T07:18:11.683Z,100831.13
2022-10-07T07:20:41.449Z,100829.09
2022-10-07T07:23:10.955Z,100816.75
2022-10-07T07:25:44.146Z,100814.66
2022-10-07T07:28:11.907Z,100819.19
2022-10-07T07:30:40.867Z,100820.41
2022-10-07T07:33:11.523Z,100817.25
2022-10-07T07:35:43.449Z,100829.09
2022-10-07T07:38:11.686Z,100834.34
2022-10-07T07:40:40.634Z,100823.34
2022-10-07T07:43:09.410Z,100824.19
2022-10-07T07:45:37.147Z,100816.03
2022-10-07T07:48:05.530Z,100806.94
2022-10-07T07:50:35.509Z,100805.06
2022-10-07T07:53:05.654Z,100805.06
2022-10-07T07:55:33.618Z,100806.31
2022-10-07T07:58:01.593Z,100815.09
2022-10-07T08:00:30.294Z,100810.22
2022-10-07T08:03:04.126Z,100808.34
2022-10-07T08:05:35.670Z,100797.22
2022-10-07T08:08:05.348Z,100808.03
2022-10-07T08:10:33.463Z,100812.25
2022-10-07T08:13:01.127Z,100810.22
2022-10-07T08:15:28.888Z,100805.19
2022-10-07T08:17:57.083Z,100805.59
2022-10-07T08:20:24.763Z,100798.09
2022-10-07T08:22:56.900Z,100811.81
2022-10-07T08:25:29.389Z,100809.38
2022-10-07T08:27:58.835Z,100802.03
2022-10-07T08:30:27.218Z,100801.88
2022-10-07T08:32:59.014Z,100787.22
2022-10-07T08:35:28.756Z,100793.41
2022-10-07T08:37:57.093Z,100794.16
2022-10-07T08:40:24.728Z,100795.75
2022-10-07T08:42:54.540Z,100796.34
2022-10-07T08:45:29.344Z,100794.25
2022-10-07T08:47:57.794Z,100791.91
2022-10-07T08:50:30.907Z,100788.84
2022-10-07T08:53:02.935Z,100789.41
2022-10-07T08:55:37.255Z,100782.50
2022-10-07T08:58:26.394Z,100783.72
2022-10-07T09:01:00.213Z,100777.59
2022-10-07T09:03:39.938Z,100781.44
2022-10-07T09:06:14.100Z,100771.28
2022-10-07T09:08:47.275Z,100718.44
2022-10-07T09:11:25.412Z,100773.53
2022-10-07T09:13:59.155Z,100768.44
2022-10-07T09:16:31.279Z,100758.00
2022-10-07T09:19:01.648Z,100769.75
2022-10-07T09:21:37.355Z,100757.66
2022-10-07T09:24:18.475Z,100762.34
2022-10-07T09:26:46.353Z,100765.00
2022-10-07T09:29:17.013Z,100759.34
2022-10-07T09:31:44.717Z,100755.44
2022-10-07T09:34:23.179Z,100757.13
2022-10-07T09:37:19.016Z,100753.38
2022-10-07T09:39:48.297Z,100752.81
2022-10-07T09:42:29.482Z,100744.63
2022-10-07T09:45:00.986Z,100742.44
2022-10-07T09:47:32.783Z,100742.97
2022-10-07T09:50:00.548Z,100738.78
2022-10-07T09:52:29.424Z,100745.91
2022-10-07T09:54:59.591Z,100748.19
2022-10-07T09:57:30.941Z,100740.84
2022-10-07T10:00:22.230Z,100740.06
2022-10-07T10:02:52.999Z,100728.59
2022-10-07T10:05:24.943Z,100734.66
2022-10-07T10:07:59.475Z,100726.19
2022-10-07T10:10:29.762Z,100659.94
2022-10-07T10:12:59.561Z,100721.91
2022-10-07T10:15:39.532Z,100726.69
2022-10-07T10:18:28.456Z,100716.00
2022-10-07T10:20:56.360Z,100724.00
2022-10-07T10:23:28.898Z,100710.16
2022-10-07T10:26:27.182Z,100697.44
2022-10-07T10:29:05.569Z,100712.16
2022-10-07T10:31:49.473Z,100709.78
2022-10-07T10:34:32.190Z,100711.78
2022-10-07T10:37:04.862Z,100667.00
2022-10-07T10:39:47.498Z,100699.53
2022-10-07T10:42:22.598Z,100696.00
2022-10-07T10:45:03.661Z,100678.13
2022-10-07T10:47:45.422Z,100676.97
2022-10-07T10:50:23.649Z,100679.34
2022-10-07T10:53:03.817Z,100674.53
2022-10-07T10:55:54.461Z,100666.63
2022-10-07T10:58:31.984Z,100660.25
2022-10-07T11:01:11.832Z,100661.81
2022-10-07T11:04:16.912Z,100653.50
2022-10-07T11:06:51.172Z,100658.97
2022-10-07T11:09:29.911Z,100648.25
2022-10-07T11:12:01.686Z,100650.59
2022-10-07T11:14:31.605Z,100656.13
2022-10-07T11:17:04.897Z,100645.31
2022-10-07T11:19:39.245Z,100630.56
2022-10-07T11:22:14.586Z,100631.38
2022-10-07T11:24:46.531Z,100630.13
2022-10-07T11:27:19.760Z,100626.38
2022-10-07T11:29:52.549Z,100625.56
2022-10-07T11:32:25.444Z,100622.09
2022-10-07T11:35:00.510Z,100622.44
2022-10-07T11:37:32.394Z,100613.03
2022-10-07T11:40:00.273Z,100608.97
2022-10-07T11:42:29.873Z,100608.97
2022-10-07T11:45:02.629Z,100608.09
2022-10-07T11:47:35.402Z,100602.53
2022-10-07T11:50:10.674Z,100593.31
2022-10-07T11:52:42.668Z,100587.00
2022-10-07T11:55:17.167Z,100586.59
2022-10-07T11:57:54.143Z,100585.66
2022-10-07T12:00:26.976Z,100561.19
2022-10-07T12:02:56.133Z,100572.84
2022-10-07T12:06:06.917Z,100568.44
2022-10-07T12:08:38.397Z,100558.44
2022-10-07T12:11:42.942Z,100556.91
2022-10-07T12:14:42.524Z,100554.16
2022-10-07T12:17:30.286Z,100546.06
2022-10-07T12:20:37.143Z,100541.63
2022-10-07T12:23:41.274Z,100538.75
2022-10-07T12:26:51.479Z,100535.44
2022-10-07T12:29:36.249Z,100525.28
2022-10-07T12:32:04.742Z,100523.53
2022-10-07T12:34:39.691Z,100517.78
2022-10-07T12:37:45.009Z,100511.38
2022-10-07T12:40:25.897Z,100498.72
2022-10-07T12:43:00.217Z,100491.06
2022-10-07T12:45:31.965Z,100486.66
2022-10-07T12:48:01.730Z,100483.13
2022-10-07T12:50:31.777Z,100469.06
2022-10-07T12:53:03.564Z,100475.34
2022-10-07T12:55:37.266Z,100474.44
2022-10-07T12:58:34.188Z,100467.31
2022-10-07T13:01:16.553Z,100454.50
2022-10-07T13:04:06.945Z,100461.94
2022-10-07T13:07:22.798Z,100447.59
2022-10-07T13:10:19.056Z,100459.97
2022-10-07T13:12:51.756Z,100457.97
2022-10-07T13:15:28.905Z,100455.63
2022-10-07T13:18:06.254Z,100458.25
2022-10-07T13:20:47.484Z,100459.44
2022-10-07T13:23:17.826Z,100447.69
2022-10-07T13:25:49.555Z,100448.59
2022-10-07T13:28:22.316Z,100435.38
2022-10-07T13:30:51.587Z,100438.25
2022-10-07T13:33:27.671Z,100408.09
2022-10-07T13:36:13.805Z,100423.69
2022-10-07T13:38:41.528Z,100420.50
2022-10-07T13:41:14.805Z,100418.13
2022-10-07T13:43:45.179Z,100406.91
2022-10-07T13:46:14.415Z,100407.69
2022-10-07T13:48:45.776Z,100402.09
2022-10-07T13:51:20.553Z,100399.00
2022-10-07T13:53:53.980Z,100390.13
2022-10-07T13:56:25.114Z,100394.00
2022-10-07T13:58:55.338Z,100381.63
2022-10-07T14:01:27.197Z,100378.69
2022-10-07T14:04:10.420Z,100372.41
2022-10-07T14:06:45.773Z,100370.59
2022-10-07T14:09:22.729Z,100328.84
2022-10-07T14:11:55.044Z,100370.75
2022-10-07T14:14:28.189Z,100367.38
2022-10-07T14:16:59.259Z,100356.34
2022-10-07T14:19:31.816Z,100356.69
2022-10-07T14:22:02.937Z,100347.56
2022-10-07T14:24:31.716Z,100347.41
2022-10-07T14:27:00.444Z,100320.38
2022-10-07T14:29:38.589Z,100338.22
2022-10-07T14:32:35.231Z,100334.91
2022-10-07T14:35:19.320Z,100326.03
2022-10-07T14:37:47.354Z,100320.66
2022-10-07T14:40:19.319Z,100318.94
2022-10-07T14:42:47.821Z,100303.53
2022-10-07T14:45:18.545Z,100310.19
2022-10-07T14:47:46.666Z,100308.81
2022-10-07T14:50:14.994Z,100313.00
2022-10-07T14:52:46.910Z,100308.94
2022-10-07T14:55:19.335Z,100304.59
2022-10-07T14:57:48.138Z,100301.50
2022-10-07T15:00:20.232Z,100291.00
2022-10-07T15:02:50.203Z,100287.44
2022-10-07T15:05:18.793Z,100280.06
2022-10-07T15:07:46.899Z,100283.38
2022-10-07T15:10:16.969Z,100289.94
2022-10-07T15:12:45.128Z,100288.06
2022-10-07T15:15:13.911Z,100290.00
2022-10-07T15:17:44.246Z,100285.47
2022-10-07T15:20:14.244Z,100280.78
2022-10-07T15:22:42.674Z,100274.66
2022-10-07T15:25:12.340Z,100271.56
2022-10-07T15:27:39.990Z,100263.78
2022-10-07T15:30:08.923Z,100264.06
2022-10-07T15:32:36.801Z,100270.69
2022-10-07T15:35:07.447Z,100266.97
2022-10-07T15:37:35.084Z,100266.63
2022-10-07T15:40:02.732Z,100270.84
2022-10-07T15:42:30.397Z,100274.94
2022-10-07T15:44:58.249Z,100260.84
2022-10-07T15:47:28.089Z,100262.56
2022-10-07T15:49:55.690Z,100255.84
2022-10-07T15:52:25.052Z,100258.91
2022-10-07T15:54:52.720Z,100257.47
2022-10-07T15:57:22.334Z,100248.09
2022-10-07T15:59:49.919Z,100234.03
2022-10-07T16:02:21.233Z,100188.84
2022-10-07T16:04:48.980Z,100252.16
2022-10-07T16:07:17.225Z,100247.91
2022-10-07T16:09:46.165Z,100236.78
2022-10-07T16:12:14.114Z,100234.72
2022-10-07T16:14:41.746Z,100242.22
2022-10-07T16:17:09.384Z,100240.84
2022-10-07T16:19:37.139Z,100249.69
2022-10-07T16:22:04.755Z,100243.91
2022-10-07T16:24:35.306Z,100235.72
2022-10-07T16:27:04.710Z,100240.63
2022-10-07T16:29:50.079Z,100233.72
2022-10-07T16:32:17.716Z,100256.94
2022-10-07T16:34:46.793Z,100250.69
2022-10-07T16:37:15.224Z,100236.19
2022-10-07T16:39:42.979Z,100235.81
2022-10-07T16:42:12.139Z,100234.81
2022-10-07T16:44:39.784Z,100241.31
2022-10-07T16:47:07.455Z,100252.81
2022-10-07T16:49:36.332Z,100250.09
2022-10-07T16:52:04.370Z,100241.13
2022-10-07T16:54:35.299Z,100241.53
2022-10-07T16:57:03.023Z,100245.97
2022-10-07T16:59:32.104Z,100160.00
2022-10-07T17:02:02.510Z,100242.91
2022-10-07T17:04:30.370Z,100235.84
2022-10-07T17:06:58.180Z,100229.16
2022-10-07T17:09:25.795Z,100239.03
2022-10-07T17:11:53.469Z,100237.09
2022-10-07T17:14:22.846Z,100239.50
2022-10-07T17:16:54.161Z,100242.25
2022-10-07T17:19:24.388Z,100238.28
2022-10-07T17:21:53.176Z,100225.69
2022-10-07T17:24:22.779Z,100252.16
2022-10-07T17:26:52.354Z,100244.69
2022-10-07T17:29:21.950Z,100238.34
2022-10-07T17:31:50.623Z,100239.53
2022-10-07T17:34:21.269Z,100241.16
2022-10-07T17:36:49.505Z,100244.72
2022-10-07T17:39:18.954Z,100235.22
2022-10-07T17:41:46.802Z,100237.59
2022-10-07T17:44:14.677Z,100242.75
2022-10-07T17:46:42.382Z,100239.56
2022-10-07T17:49:13.070Z,100232.47
2022-10-07T17:51:43.796Z,100228.13
2022-10-07T17:54:13.446Z,100233.25
2022-10-07T17:56:41.245Z,100203.22
2022-10-07T17:59:08.933Z,100229.31
2022-10-07T18:01:37.598Z,100222.19
2022-10-07T18:04:06.706Z,100222.97
2022-10-07T18:06:36.347Z,100231.69
2022-10-07T18:09:07.766Z,100227.31
2022-10-07T18:11:53.211Z,100227.31
2022-10-07T18:14:39.272Z,100218.25
2022-10-07T18:17:08.712Z,100220.63
2022-10-07T18:19:36.766Z,100219.41
2022-10-07T18:22:04.507Z,100209.13
2022-10-07T18:24:33.502Z,100217.00
2022-10-07T18:27:02.035Z,100199.22
2022-10-07T18:29:31.473Z,100211.09
2022-10-07T18:31:59.557Z,100204.34
2022-10-07T18:34:27.174Z,100205.16
2022-10-07T18:36:57.013Z,100201.22
2022-10-07T18:39:27.189Z,100197.22
2022-10-07T18:41:56.585Z,100194.09
2022-10-07T18:44:24.314Z,100192.09
2022-10-07T18:46:52.249Z,100198.44
2022-10-07T18:49:19.854Z,100191.75
2022-10-07T18:51:50.303Z,100196.88
2022-10-07T18:54:17.969Z,100205.97
2022-10-07T18:56:47.705Z,100203.19
2022-10-07T18:59:17.660Z,100203.19
2022-10-07T19:01:50.127Z,100209.13
2022-10-07T19:04:19.809Z,100206.75
2022-10-07T19:06:47.579Z,100207.94
2022-10-07T19:09:17.034Z,100203.56
2022-10-07T19:11:45.009Z,100205.97
2022-10-07T19:14:12.080Z,100205.56
2022-10-07T19:16:43.586Z,100198.84
2022-10-07T19:19:13.759Z,100202.41
2022-10-07T19:21:41.849Z,100196.44
2022-10-07T19:24:09.467Z,100185.00
2022-10-07T19:26:42.229Z,100196.84
2022-10-07T19:29:10.739Z,100200.78
2022-10-07T19:31:40.475Z,100198.81
2022-10-07T19:34:11.450Z,100201.97
2022-10-07T19:36:42.328Z,100197.66
2022-10-07T19:39:11.291Z,100198.81
2022-10-07T19:41:38.997Z,100188.56
2022-10-07T19:44:06.792Z,100194.88
2022-10-07T19:46:34.500Z,100184.22
2022-10-07T19:49:03.509Z,100196.44
2022-10-07T19:51:34.074Z,100192.84
2022-10-07T19:54:03.374Z,100189.34
2022-10-07T19:56:32.857Z,100186.94
2022-10-07T19:59:05.342Z,100189.34
2022-10-07T20:01:35.148Z,100190.91
2022-10-07T20:04:23.130Z,100187.34
2022-10-07T20:07:12.472Z,100180.59
2022-10-07T20:10:00.461Z,100184.63
2022-10-07T20:12:48.563Z,100174.78
2022-10-07T20:15:37.104Z,100169.66
2022-10-07T20:18:25.093Z,100167.28
2022-10-07T20:21:16.005Z,100168.09
2022-10-07T20:24:07.370Z,100153.47
2022-10-07T20:26:55.322Z,100168.88
2022-10-07T20:32:37.285Z,100165.31
2022-10-07T20:35:25.220Z,100166.88
2022-10-07T20:38:13.114Z,100168.44
2022-10-07T20:41:18.946Z,100171.59
2022-10-07T20:44:08.023Z,100170.44
2022-10-07T20:46:57.173Z,100161.72
2022-10-07T20:49:48.437Z,100170.84
2022-10-07T20:52:37.176Z,100144.38
2022-10-07T20:55:25.099Z,100173.59
2022-10-07T20:58:14.866Z,100187.81
2022-10-07T21:01:08.506Z,100178.34
2022-10-07T21:03:56.880Z,100177.16
2022-10-07T21:06:46.147Z,100178.72
2022-10-07T21:09:36.477Z,100177.56
2022-10-07T21:12:24.576Z,100173.59
2022-10-07T21:15:12.553Z,100172.81
2022-10-07T21:18:00.469Z,100176.78
2022-10-07T21:20:56.324Z,100159.00
2022-10-07T21:23:46.447Z,100165.31
2022-10-07T21:26:34.837Z,100160.16
2022-10-07T21:29:22.975Z,100154.66
2022-10-07T21:32:11.645Z,100155.03
2022-10-07T21:34:59.585Z,100153.88
2022-10-07T21:37:47.493Z,100158.97
2022-10-07T21:40:36.744Z,100163.31
2022-10-07T21:43:24.645Z,100157.00
2022-10-07T21:46:12.618Z,100155.03
2022-10-07T21:49:00.719Z,100149.50
2022-10-07T21:51:48.626Z,100155.78
2022-10-07T21:54:37.407Z,100152.63
2022-10-07T21:57:26.691Z,100149.00
2022-10-07T22:00:16.390Z,100142.31
2022-10-07T22:03:04.739Z,100137.22
2022-10-07T22:05:52.711Z,100141.56
2022-10-07T22:08:40.878Z,100146.31
2022-10-07T22:11:28.772Z,100141.59
2022-10-07T22:14:18.690Z,100152.63
2022-10-07T22:17:06.656Z,100149.09
2022-10-07T22:19:54.768Z,100143.97
2022-10-07T22:22:42.888Z,100139.25
2022-10-07T22:25:30.913Z,100143.59
2022-10-07T22:28:18.885Z,100143.59
2022-10-07T22:31:10.678Z,100151.50
2022-10-07T22:34:00.297Z,100143.97
2022-10-07T22:36:48.190Z,100138.44
2022-10-07T22:39:36.095Z,100136.88
2022-10-07T22:42:24.165Z,100134.88
2022-10-07T22:45:12.656Z,100131.72
2022-10-07T22:48:02.115Z,100130.16
2022-10-07T22:50:50.812Z,100131.34
2022-10-07T22:53:40.817Z,100126.19
2022-10-07T22:56:29.384Z,100129.34
2022-10-07T22:59:17.464Z,100126.97
2022-10-07T23:02:05.442Z,100127.34
2022-10-07T23:04:54.726Z,100122.22
2022-10-07T23:07:42.609Z,100123.38
2022-10-07T23:10:30.569Z,100119.41
2022-10-07T23:13:18.470Z,100122.19
2022-10-07T23:16:11.859Z,100112.28
2022-10-07T23:19:00.059Z,100107.94
2022-10-07T23:21:49.532Z,100104.34
2022-10-07T23:24:37.408Z,100109.09
2022-10-07T23:27:25.353Z,100105.50
2022-10-07T23:30:13.736Z,100104.34
2022-10-07T23:33:01.668Z,100091.28
2022-10-07T23:35:49.615Z,100094.44
2022-10-07T23:38:40.699Z,100091.28
2022-10-07T23:41:32.331Z,100081.00
2022-10-07T23:44:20.220Z,100090.88
2022-10-07T23:47:08.130Z,100097.19
2022-10-07T23:49:56.099Z,100089.25
2022-10-07T23:52:44.203Z,100097.56
2022-10-07T23:55:33.652Z,100082.19
2022-10-07T23:58:23.573Z,100081.00
